createdAt,value
2023-05-09T00:02:15.178Z,4.97
2023-05-09T00:04:42.440Z,5.05
2023-05-09T00:07:10.694Z,5.07
2023-05-09T00:09:37.308Z,5.07
2023-05-09T00:12:04.326Z,5.09
2023-05-09T00:14:33.633Z,5.09
2023-05-09T00:17:00.841Z,5.11
2023-05-09T00:19:27.705Z,5.12
2023-05-09T00:21:54.361Z,5.12
2023-05-09T00:24:20.975Z,5.13
2023-05-09T00:26:47.588Z,5.13
2023-05-09T00:29:14.213Z,5.15
2023-05-09T00:31:40.844Z,5.15
2023-05-09T00:34:07.558Z,5.12
2023-05-09T00:36:34.205Z,5.15
2023-05-09T00:39:00.818Z,5.18
2023-05-09T00:41:27.473Z,5.19
2023-05-09T00:43:54.062Z,5.21
2023-05-09T00:46:21.204Z,5.20
2023-05-09T00:48:48.262Z,5.23
2023-05-09T00:51:15.006Z,5.24
2023-05-09T00:53:41.866Z,5.33
2023-05-09T00:56:08.493Z,5.40
2023-05-09T00:58:35.096Z,5.48
2023-05-09T01:01:03.864Z,5.62
2023-05-09T01:03:31.427Z,5.71
2023-05-09T01:06:41.210Z,5.76
2023-05-09T01:09:24.960Z,5.86
2023-05-09T01:12:00.892Z,5.95
2023-05-09T01:14:37.800Z,5.95
2023-05-09T01:17:46.236Z,5.97
2023-05-09T01:20:39.210Z,6.10
2023-05-09T01:23:30.673Z,6.13
2023-05-09T01:26:26.877Z,6.17
2023-05-09T01:28:56.806Z,6.07
2023-05-09T01:31:24.802Z,6.05
2023-05-09T01:33:57.136Z,6.05
2023-05-09T01:36:23.755Z,6.05
2023-05-09T01:38:50.635Z,6.00
2023-05-09T01:41:17.623Z,6.03
2023-05-09T01:43:45.902Z,6.08
2023-05-09T01:46:12.926Z,6.01
2023-05-09T01:48:41.134Z,5.98
2023-05-09T01:51:07.993Z,6.00
2023-05-09T01:53:34.694Z,5.98
2023-05-09T01:56:02.982Z,5.96
2023-05-09T01:58:30.016Z,6.04
2023-05-09T02:00:56.698Z,6.00
2023-05-09T02:03:23.539Z,5.99
2023-05-09T02:05:50.460Z,6.08
2023-05-09T02:08:17.869Z,6.08
2023-05-09T02:10:44.457Z,5.98
2023-05-09T02:13:11.238Z,5.90
2023-05-09T02:15:38.466Z,5.82
2023-05-09T02:18:05.440Z,5.81
2023-05-09T02:20:35.842Z,5.86
2023-05-09T02:23:02.523Z,5.95
2023-05-09T02:25:29.187Z,6.12
2023-05-09T02:27:57.011Z,6.14
2023-05-09T02:30:25.500Z,6.12
2023-05-09T02:32:55.500Z,6.12
2023-05-09T02:35:22.307Z,6.21
2023-05-09T02:37:48.921Z,6.24
2023-05-09T02:40:15.533Z,6.24
2023-05-09T02:42:42.170Z,6.23
2023-05-09T02:45:10.574Z,6.27
2023-05-09T02:47:38.073Z,6.28
2023-05-09T02:50:06.064Z,6.24
2023-05-09T02:52:33.370Z,6.09
2023-05-09T02:55:00.118Z,5.90
2023-05-09T02:57:27.069Z,5.76
2023-05-09T02:59:53.685Z,5.69
2023-05-09T03:02:20.508Z,5.63
2023-05-09T03:04:47.379Z,5.55
2023-05-09T03:07:13.996Z,5.47
2023-05-09T03:09:41.432Z,5.41
2023-05-09T03:12:08.389Z,5.41
2023-05-09T03:14:35.819Z,5.38
2023-05-09T03:17:02.882Z,5.35
2023-05-09T03:19:33.689Z,5.34
2023-05-09T03:22:00.306Z,5.32
2023-05-09T03:24:30.805Z,5.32
2023-05-09T03:26:57.430Z,5.32
2023-05-09T03:29:24.408Z,5.32
2023-05-09T03:31:51.191Z,5.33
2023-05-09T03:34:18.058Z,5.35
2023-05-09T03:36:45.063Z,5.36
2023-05-09T03:39:13.193Z,5.38
2023-05-09T03:41:41.903Z,5.41
2023-05-09T03:44:08.732Z,5.42
2023-05-09T03:46:35.479Z,5.44
2023-05-09T03:49:04.384Z,5.45
2023-05-09T03:51:32.341Z,5.46
2023-05-09T03:54:00.242Z,5.47
2023-05-09T03:56:27.419Z,5.51
2023-05-09T03:58:54.214Z,5.52
2023-05-09T04:01:21.463Z,5.56
2023-05-09T04:03:48.131Z,5.59
2023-05-09T04:06:15.583Z,5.61
2023-05-09T04:08:43.594Z,5.65
2023-05-09T04:11:10.747Z,5.70
2023-05-09T04:13:38.362Z,5.78
2023-05-09T04:16:11.520Z,5.83
2023-05-09T04:18:42.264Z,5.88
2023-05-09T04:21:09.517Z,5.93
2023-05-09T04:23:36.812Z,5.98
2023-05-09T04:26:03.777Z,6.04
2023-05-09T04:28:30.611Z,6.12
2023-05-09T04:30:58.258Z,6.19
2023-05-09T04:33:24.966Z,6.28
2023-05-09T04:35:52.421Z,6.35
2023-05-09T04:38:19.315Z,6.42
2023-05-09T04:40:46.378Z,6.50
2023-05-09T04:43:13.316Z,6.60
2023-05-09T04:45:40.711Z,6.68
2023-05-09T04:48:07.807Z,6.77
2023-05-09T04:50:34.671Z,6.88
2023-05-09T04:53:03.334Z,6.97
2023-05-09T04:55:30.546Z,7.05
2023-05-09T04:57:57.378Z,7.14
2023-05-09T05:00:24.915Z,7.22
2023-05-09T05:02:51.639Z,7.31
2023-05-09T05:05:24.582Z,7.39
2023-05-09T05:07:54.221Z,7.47
2023-05-09T05:10:22.123Z,7.54
2023-05-09T05:12:52.808Z,7.62
2023-05-09T05:15:19.700Z,7.70
2023-05-09T05:17:47.081Z,7.76
2023-05-09T05:20:15.081Z,7.83
2023-05-09T05:22:44.213Z,7.89
2023-05-09T05:25:11.667Z,7.96
2023-05-09T05:27:38.782Z,8.04
2023-05-09T05:30:07.642Z,8.12
2023-05-09T05:32:34.530Z,8.21
2023-05-09T05:35:02.633Z,8.28
2023-05-09T05:37:29.724Z,8.35
2023-05-09T05:39:56.504Z,8.42
2023-05-09T05:42:24.420Z,8.48
2023-05-09T05:44:51.285Z,8.54
2023-05-09T05:47:17.937Z,8.60
2023-05-09T05:49:45.489Z,8.67
2023-05-09T05:52:12.384Z,8.72
2023-05-09T05:54:39.513Z,8.80
2023-05-09T05:57:06.620Z,8.87
2023-05-09T05:59:33.334Z,8.99
2023-05-09T06:02:00.375Z,9.08
2023-05-09T06:04:29.017Z,9.14
2023-05-09T06:06:55.729Z,9.19
2023-05-09T06:09:22.326Z,9.23
2023-05-09T06:11:49.007Z,9.30
2023-05-09T06:14:15.778Z,9.39
2023-05-09T06:16:42.479Z,9.48
2023-05-09T06:19:09.367Z,9.57
2023-05-09T06:21:35.963Z,9.65
2023-05-09T06:24:11.809Z,9.71
2023-05-09T06:26:41.312Z,9.77
2023-05-09T06:29:08.058Z,9.84
2023-05-09T06:31:38.553Z,9.91
2023-05-09T06:34:06.240Z,9.99
2023-05-09T06:36:33.632Z,10.13
2023-05-09T06:39:00.539Z,10.24
2023-05-09T06:41:27.155Z,10.31
2023-05-09T06:43:53.953Z,10.36
2023-05-09T06:46:21.212Z,10.42
2023-05-09T06:48:48.029Z,10.48
2023-05-09T06:51:14.843Z,10.57
2023-05-09T06:53:41.450Z,10.65
2023-05-09T06:56:08.071Z,10.74
2023-05-09T06:58:34.949Z,10.83
2023-05-09T07:01:01.919Z,10.94
2023-05-09T07:03:28.887Z,11.06
2023-05-09T07:06:02.686Z,11.17
2023-05-09T07:08:29.347Z,11.19
2023-05-09T07:10:55.945Z,11.19
2023-05-09T07:13:22.914Z,11.23
2023-05-09T07:15:49.745Z,11.30
2023-05-09T07:18:16.411Z,11.35
2023-05-09T07:20:43.120Z,11.35
2023-05-09T07:23:09.765Z,11.38
2023-05-09T07:25:36.455Z,11.42
2023-05-09T07:28:03.081Z,11.49
2023-05-09T07:30:29.710Z,11.61
2023-05-09T07:32:56.332Z,11.72
2023-05-09T07:35:23.195Z,11.81
2023-05-09T07:37:49.809Z,11.89
2023-05-09T07:40:16.809Z,12.00
2023-05-09T07:42:49.707Z,12.10
2023-05-09T07:45:16.845Z,12.18
2023-05-09T07:47:44.049Z,12.25
2023-05-09T07:50:11.462Z,12.33
2023-05-09T07:52:38.313Z,12.40
2023-05-09T07:55:05.776Z,12.46
2023-05-09T07:57:32.402Z,12.44
2023-05-09T07:59:59.639Z,12.46
2023-05-09T08:02:26.593Z,12.47
2023-05-09T08:04:53.433Z,12.37
2023-05-09T08:07:20.339Z,12.30
2023-05-09T08:09:47.161Z,12.20
2023-05-09T08:12:14.041Z,12.14
2023-05-09T08:14:40.861Z,12.13
2023-05-09T08:17:07.603Z,12.13
2023-05-09T08:19:34.249Z,12.08
2023-05-09T08:22:00.887Z,12.06
2023-05-09T08:24:27.477Z,12.11
2023-05-09T08:26:54.069Z,12.20
2023-05-09T08:29:20.727Z,12.30
2023-05-09T08:31:47.367Z,12.30
2023-05-09T08:34:14.073Z,12.27
2023-05-09T08:36:41.266Z,12.24
2023-05-09T08:39:09.636Z,12.22
2023-05-09T08:41:36.429Z,12.20
2023-05-09T08:44:03.385Z,12.21
2023-05-09T08:46:37.415Z,12.28
2023-05-09T08:49:07.493Z,12.37
2023-05-09T08:51:35.489Z,12.41
2023-05-09T08:54:02.464Z,12.41
2023-05-09T08:56:30.599Z,12.41
2023-05-09T08:58:57.219Z,12.59
2023-05-09T09:01:24.494Z,12.78
2023-05-09T09:03:51.268Z,12.86
2023-05-09T09:06:18.797Z,12.89
2023-05-09T09:08:45.558Z,12.85
2023-05-09T09:11:13.553Z,12.85
2023-05-09T09:13:41.021Z,12.88
2023-05-09T09:16:09.469Z,12.88
2023-05-09T09:18:36.142Z,12.90
2023-05-09T09:21:07.509Z,12.91
2023-05-09T09:23:34.137Z,13.02
2023-05-09T09:26:06.918Z,13.12
2023-05-09T09:28:33.736Z,13.08
2023-05-09T09:31:00.593Z,12.91
2023-05-09T09:33:27.787Z,12.71
2023-05-09T09:35:56.160Z,12.58
2023-05-09T09:38:23.455Z,12.49
2023-05-09T09:40:56.753Z,12.49
2023-05-09T09:43:30.442Z,12.51
2023-05-09T09:45:57.915Z,12.49
2023-05-09T09:48:25.696Z,12.49
2023-05-09T09:50:54.983Z,12.51
2023-05-09T09:53:21.977Z,12.56
2023-05-09T09:55:52.321Z,12.66
2023-05-09T09:58:21.961Z,12.82
2023-05-09T10:00:50.429Z,13.03
2023-05-09T10:03:17.673Z,13.24
2023-05-09T10:05:45.140Z,13.41
2023-05-09T10:08:12.044Z,13.54
2023-05-09T10:10:38.934Z,13.62
2023-05-09T10:13:12.088Z,13.69
2023-05-09T10:15:52.426Z,13.77
2023-05-09T10:18:21.698Z,13.63
2023-05-09T10:20:48.582Z,13.37
2023-05-09T10:23:15.286Z,13.19
2023-05-09T10:25:48.305Z,13.13
2023-05-09T10:28:17.942Z,13.14
2023-05-09T10:31:00.111Z,13.23
2023-05-09T10:33:42.471Z,13.47
2023-05-09T10:36:09.472Z,13.79
2023-05-09T10:38:36.171Z,14.10
2023-05-09T10:41:03.125Z,14.34
2023-05-09T10:43:31.611Z,14.49
2023-05-09T10:45:59.099Z,14.42
2023-05-09T10:48:25.745Z,14.17
2023-05-09T10:50:52.968Z,13.89
2023-05-09T10:53:21.757Z,13.64
2023-05-09T10:55:56.591Z,13.55
2023-05-09T10:58:31.972Z,13.62
2023-05-09T11:00:59.795Z,13.75
2023-05-09T11:03:27.838Z,13.72
2023-05-09T11:05:56.026Z,13.61
2023-05-09T11:08:27.074Z,13.57
2023-05-09T11:10:58.302Z,13.57
2023-05-09T11:13:25.706Z,13.62
2023-05-09T11:16:01.854Z,13.65
2023-05-09T11:18:29.227Z,13.65
2023-05-09T11:20:56.138Z,13.67
2023-05-09T11:23:26.530Z,13.75
2023-05-09T11:25:53.584Z,13.81
2023-05-09T11:28:31.325Z,13.82
2023-05-09T11:31:11.191Z,13.82
2023-05-09T11:33:38.010Z,13.81
2023-05-09T11:36:25.152Z,13.78
2023-05-09T11:39:06.557Z,13.74
2023-05-09T11:41:44.087Z,13.69
2023-05-09T11:44:20.856Z,13.59
2023-05-09T11:46:48.888Z,13.46
2023-05-09T11:49:16.923Z,13.36
2023-05-09T11:51:43.653Z,13.32
2023-05-09T11:54:12.019Z,13.31
2023-05-09T11:56:39.951Z,13.32
2023-05-09T11:59:07.506Z,13.40
2023-05-09T12:01:34.091Z,13.49
2023-05-09T12:04:02.556Z,13.55
2023-05-09T12:06:30.186Z,13.61
2023-05-09T12:09:00.028Z,13.63
2023-05-09T12:11:26.677Z,13.60
2023-05-09T12:13:53.492Z,13.56
2023-05-09T12:16:21.809Z,13.56
2023-05-09T12:18:52.593Z,13.58
2023-05-09T12:21:19.568Z,13.59
2023-05-09T12:23:48.940Z,13.63
2023-05-09T12:26:17.729Z,13.68
2023-05-09T12:28:44.476Z,13.74
2023-05-09T12:31:11.186Z,13.78
2023-05-09T12:33:38.787Z,13.82
2023-05-09T12:36:10.974Z,13.88
2023-05-09T12:38:37.805Z,13.91
2023-05-09T12:41:15.386Z,13.89
2023-05-09T12:43:55.533Z,13.85
2023-05-09T12:46:22.227Z,13.85
2023-05-09T12:48:49.509Z,13.86
2023-05-09T12:51:20.609Z,13.84
2023-05-09T12:53:47.348Z,13.88
2023-05-09T12:56:15.584Z,13.92
2023-05-09T12:58:55.244Z,13.98
2023-05-09T13:01:24.059Z,13.92
2023-05-09T13:03:52.411Z,13.88
2023-05-09T13:06:19.750Z,13.80
2023-05-09T13:08:59.925Z,13.71
2023-05-09T13:11:27.134Z,13.70
2023-05-09T13:13:56.903Z,13.65
2023-05-09T13:16:23.718Z,13.64
2023-05-09T13:18:50.487Z,13.61
2023-05-09T13:21:17.105Z,13.49
2023-05-09T13:23:45.485Z,13.39
2023-05-09T13:26:12.408Z,13.41
2023-05-09T13:28:39.166Z,13.44
2023-05-09T13:31:06.892Z,13.47
2023-05-09T13:33:33.866Z,13.58
2023-05-09T13:36:00.846Z,13.68
2023-05-09T13:38:30.769Z,13.69
2023-05-09T13:40:57.712Z,13.66
2023-05-09T13:43:24.317Z,13.75
2023-05-09T13:45:50.969Z,13.87
2023-05-09T13:48:17.627Z,14.00
2023-05-09T13:50:44.620Z,14.08
2023-05-09T13:53:11.232Z,14.09
2023-05-09T13:55:37.938Z,14.03
2023-05-09T13:58:04.671Z,13.86
2023-05-09T14:00:31.326Z,13.68
2023-05-09T14:02:58.027Z,13.62
2023-05-09T14:05:24.680Z,13.53
2023-05-09T14:07:51.904Z,13.39
2023-05-09T14:10:18.789Z,13.27
2023-05-09T14:12:47.331Z,13.19
2023-05-09T14:15:14.160Z,13.17
2023-05-09T14:17:40.914Z,13.14
2023-05-09T14:20:08.373Z,13.10
2023-05-09T14:22:35.100Z,13.10
2023-05-09T14:25:01.730Z,13.11
2023-05-09T14:27:28.370Z,13.10
2023-05-09T14:29:55.374Z,13.14
2023-05-09T14:32:22.080Z,13.16
2023-05-09T14:34:51.835Z,13.16
2023-05-09T14:37:18.438Z,13.13
2023-05-09T14:39:45.596Z,13.10
2023-05-09T14:42:14.131Z,13.10
2023-05-09T14:44:41.483Z,13.10
2023-05-09T14:47:12.139Z,13.10
2023-05-09T14:49:39.966Z,13.12
2023-05-09T14:52:06.589Z,13.13
2023-05-09T14:54:33.177Z,13.12
2023-05-09T14:57:02.089Z,13.12
2023-05-09T14:59:29.678Z,13.11
2023-05-09T15:01:56.290Z,13.09
2023-05-09T15:04:28.090Z,13.11
2023-05-09T15:06:54.866Z,13.12
2023-05-09T15:09:21.688Z,13.09
2023-05-09T15:11:49.369Z,13.06
2023-05-09T15:14:17.047Z,13.03
2023-05-09T15:16:43.926Z,13.00
2023-05-09T15:19:10.865Z,12.93
2023-05-09T15:21:37.498Z,12.85
2023-05-09T15:24:04.851Z,12.80
2023-05-09T15:26:32.408Z,12.78
2023-05-09T15:28:59.334Z,12.73
2023-05-09T15:31:26.325Z,12.72
2023-05-09T15:33:53.336Z,12.74
2023-05-09T15:36:20.131Z,12.70
2023-05-09T15:38:49.451Z,12.65
2023-05-09T15:41:16.836Z,12.62
2023-05-09T15:43:43.606Z,12.58
2023-05-09T15:46:10.332Z,12.58
2023-05-09T15:48:37.088Z,12.60
2023-05-09T15:51:04.247Z,12.62
2023-05-09T15:53:31.156Z,12.63
2023-05-09T15:55:57.937Z,12.65
2023-05-09T15:58:24.639Z,12.66
2023-05-09T16:00:51.581Z,12.64
2023-05-09T16:03:18.926Z,12.60
2023-05-09T16:05:45.668Z,12.55
2023-05-09T16:08:12.561Z,12.51
2023-05-09T16:10:39.737Z,12.46
2023-05-09T16:13:07.422Z,12.43
2023-05-09T16:15:34.277Z,12.39
2023-05-09T16:18:00.917Z,12.37
2023-05-09T16:20:27.896Z,12.37
2023-05-09T16:22:54.523Z,12.35
2023-05-09T16:25:21.128Z,12.32
2023-05-09T16:27:47.839Z,12.35
2023-05-09T16:30:15.391Z,12.35
2023-05-09T16:32:42.647Z,12.31
2023-05-09T16:35:09.723Z,12.28
2023-05-09T16:37:36.578Z,12.22
2023-05-09T16:40:04.477Z,12.20
2023-05-09T16:42:31.224Z,12.19
2023-05-09T16:44:58.087Z,12.16
2023-05-09T16:47:25.031Z,12.12
2023-05-09T16:49:51.802Z,12.09
2023-05-09T16:52:18.455Z,12.06
2023-05-09T16:54:45.395Z,12.03
2023-05-09T16:57:12.776Z,12.02
2023-05-09T16:59:39.657Z,11.99
2023-05-09T17:02:06.462Z,11.95
2023-05-09T17:04:33.892Z,11.90
2023-05-09T17:07:01.940Z,11.84
2023-05-09T17:09:28.880Z,11.78
2023-05-09T17:11:55.981Z,11.71
2023-05-09T17:14:22.676Z,11.66
2023-05-09T17:16:49.460Z,11.61
2023-05-09T17:19:16.875Z,11.57
2023-05-09T17:21:44.335Z,11.51
2023-05-09T17:24:11.034Z,11.45
2023-05-09T17:26:38.693Z,11.40
2023-05-09T17:29:05.488Z,11.34
2023-05-09T17:31:32.437Z,11.29
2023-05-09T17:33:59.060Z,11.26
2023-05-09T17:36:26.044Z,11.20
2023-05-09T17:38:52.683Z,11.16
2023-05-09T17:41:19.461Z,11.10
2023-05-09T17:43:46.141Z,11.05
2023-05-09T17:46:14.815Z,11.00
2023-05-09T17:48:42.094Z,10.95
2023-05-09T17:51:09.170Z,10.90
2023-05-09T17:53:35.834Z,10.85
2023-05-09T20:01:33.164Z,7.91
2023-05-09T20:04:00.381Z,7.99
2023-05-09T20:06:27.269Z,8.05
2023-05-09T20:08:53.890Z,8.12
2023-05-09T20:11:21.618Z,8.18
2023-05-09T20:13:48.274Z,8.22
2023-05-09T20:16:15.179Z,8.26
2023-05-09T20:18:41.884Z,8.26
2023-05-09T20:21:10.398Z,8.24
2023-05-09T20:23:38.189Z,8.22
2023-05-09T20:26:05.580Z,8.21
2023-05-09T20:28:32.541Z,8.20
2023-05-09T20:31:00.521Z,8.19
2023-05-09T20:33:27.333Z,8.18
2023-05-09T20:35:54.086Z,8.20
2023-05-09T20:38:20.700Z,8.19
2023-05-09T20:40:47.947Z,8.18
2023-05-09T20:43:14.532Z,8.19
2023-05-09T20:45:41.470Z,8.22
2023-05-09T20:48:08.294Z,8.19
2023-05-09T20:50:35.036Z,8.14
2023-05-09T20:53:01.675Z,8.05
2023-05-09T20:55:28.452Z,7.96
2023-05-09T20:57:55.103Z,7.79
2023-05-09T21:00:21.699Z,7.60
2023-05-09T21:02:48.694Z,7.56
2023-05-09T21:05:15.748Z,7.56
2023-05-09T21:07:42.322Z,7.65
2023-05-09T21:10:10.499Z,7.69
2023-05-09T21:12:37.253Z,7.70
2023-05-09T21:15:04.558Z,7.76
2023-05-09T21:17:31.441Z,7.76
2023-05-09T21:19:58.142Z,7.60
2023-05-09T21:22:25.095Z,7.56
2023-05-09T21:24:51.687Z,7.56
2023-05-09T21:27:18.337Z,7.36
2023-05-09T21:29:49.195Z,7.18
2023-05-09T21:32:17.073Z,7.05
2023-05-09T21:34:43.692Z,6.99
2023-05-09T21:37:10.308Z,6.98
2023-05-09T21:41:29.000Z,7.01
2023-05-09T21:43:56.179Z,7.12
2023-05-09T21:46:22.861Z,7.20
2023-05-09T21:48:49.681Z,7.22
2023-05-09T21:51:16.292Z,7.24
2023-05-09T21:53:42.941Z,7.31
2023-05-09T21:56:09.566Z,7.38
2023-05-09T21:58:36.300Z,7.43
2023-05-09T22:01:02.995Z,7.45
2023-05-09T22:03:29.890Z,7.44
2023-05-09T22:05:56.725Z,7.40
2023-05-09T22:08:23.346Z,7.36
2023-05-09T22:10:51.015Z,7.35
2023-05-09T22:13:17.616Z,7.36
2023-05-09T22:15:44.235Z,7.35
2023-05-09T22:18:11.502Z,7.20
2023-05-09T22:20:38.115Z,6.94
2023-05-09T22:23:04.717Z,6.72
2023-05-09T22:25:31.350Z,6.56
2023-05-09T22:27:58.048Z,6.60
2023-05-09T22:30:24.871Z,6.71
2023-05-09T22:32:52.092Z,6.79
2023-05-09T22:35:18.708Z,6.88
2023-05-09T22:37:45.369Z,6.95
2023-05-09T22:40:13.902Z,7.01
2023-05-09T22:42:40.733Z,7.05
2023-05-09T22:45:08.189Z,7.11
2023-05-09T22:47:34.879Z,7.16
2023-05-09T22:50:01.740Z,7.22
2023-05-09T22:52:28.332Z,7.24
2023-05-09T22:54:54.924Z,7.29
2023-05-09T22:57:23.755Z,7.33
2023-05-09T22:59:51.124Z,7.34
2023-05-09T23:02:17.783Z,7.29
2023-05-09T23:04:44.659Z,7.09
2023-05-09T23:07:11.724Z,6.91
2023-05-09T23:09:38.900Z,6.70
2023-05-09T23:12:06.251Z,6.50
2023-05-09T23:14:32.860Z,6.34
2023-05-09T23:16:59.585Z,6.20
2023-05-09T23:19:26.238Z,6.12
2023-05-09T23:21:53.366Z,6.07
2023-05-09T23:24:20.148Z,5.98
2023-05-09T23:26:46.773Z,5.90
2023-05-09T23:29:13.406Z,5.84
2023-05-09T23:31:40.061Z,5.83
2023-05-09T23:34:06.677Z,5.82
2023-05-09T23:36:33.359Z,5.76
2023-05-09T23:39:00.036Z,5.74
2023-05-09T23:41:26.647Z,5.78
2023-05-09T23:43:53.310Z,5.92
2023-05-09T23:46:19.957Z,6.04
2023-05-09T23:48:46.790Z,6.15
2023-05-09T23:51:13.368Z,6.27
2023-05-09T23:53:39.961Z,6.36
2023-05-09T23:56:07.308Z,6.43
2023-05-09T23:58:34.012Z,6.40
